createdAt,value
2018-01-02T00:00:30.119Z,20.88
2018-01-02T00:01:39.060Z,20.94
2018-01-02T00:02:47.735Z,20.8
2018-01-02T00:03:56.732Z,20.94
2018-01-02T00:05:05.932Z,20.82
2018-01-02T00:06:14.877Z,20.82
2018-01-02T00:07:24.072Z,20.84
2018-01-02T00:08:33.009Z,20.85
2018-01-02T00:09:42.202Z,20.85
2018-01-02T00:10:51.150Z,20.88
2018-01-02T00:12:00.077Z,20.89
2018-01-02T00:13:09.008Z,20.8
2018-01-02T00:14:17.686Z,20.84
2018-01-02T00:15:26.678Z,20.87
2018-01-02T00:16:35.874Z,20.87
2018-01-02T00:17:45.359Z,20.91
2018-01-02T00:18:54.807Z,20.87
2018-01-02T00:20:03.546Z,20.88
2018-01-02T00:21:13.020Z,20.82
2018-01-02T00:22:22.486Z,20.85
2018-01-02T00:23:31.423Z,20.88
2018-01-02T00:24:40.094Z,20.91
2018-01-02T00:25:49.043Z,20.84
2018-01-02T00:26:58.231Z,20.89
2018-01-02T00:28:07.694Z,20.84
2018-01-02T00:29:16.632Z,20.89
2018-01-02T00:30:25.562Z,20.88
2018-01-02T00:31:34.226Z,20.85
2018-01-02T00:32:43.421Z,20.8
2018-01-02T00:33:52.096Z,20.85
2018-01-02T00:35:01.038Z,20.8
2018-01-02T00:36:09.970Z,20.8
2018-01-02T00:37:18.909Z,20.77
2018-01-02T00:38:28.125Z,20.79
2018-01-02T00:39:36.817Z,20.85
2018-01-02T00:40:45.499Z,20.87
2018-01-02T00:41:54.428Z,20.77
2018-01-02T00:43:03.380Z,20.77
2018-01-02T00:44:12.060Z,20.79
2018-01-02T00:45:21.003Z,20.76
2018-01-02T00:46:29.937Z,20.77
2018-01-02T00:47:38.941Z,20.77
2018-01-02T00:48:47.894Z,20.84
2018-01-02T00:49:57.091Z,20.79
2018-01-02T00:51:06.282Z,20.73
2018-01-02T00:52:14.958Z,20.8
2018-01-02T00:53:23.637Z,20.79
2018-01-02T00:54:32.576Z,20.77
2018-01-02T00:55:41.522Z,20.76
2018-01-02T00:56:50.199Z,20.74
2018-01-02T00:57:59.399Z,20.77
2018-01-02T00:59:08.864Z,20.82
2018-01-02T01:00:17.542Z,20.8
2018-01-02T01:01:26.482Z,20.74
2018-01-02T01:02:35.151Z,20.82
2018-01-02T01:03:44.083Z,20.76
2018-01-02T01:04:53.021Z,20.77
2018-01-02T01:06:01.961Z,20.79
2018-01-02T01:07:10.644Z,20.87
2018-01-02T01:08:19.588Z,20.77
2018-01-02T01:09:28.781Z,20.76
2018-01-02T01:10:37.985Z,20.79
2018-01-02T01:11:46.651Z,20.77
2018-01-02T01:12:55.341Z,20.79
2018-01-02T01:16:37.464Z,20.82
2018-01-02T01:17:46.413Z,20.85
2018-01-02T01:18:55.604Z,20.73
2018-01-02T01:20:04.808Z,20.82
2018-01-02T01:21:14.262Z,20.84
2018-01-02T01:22:23.717Z,20.8
2018-01-02T01:26:05.006Z,20.77
2018-01-02T01:27:13.949Z,20.84
2018-01-02T01:28:22.889Z,20.8
2018-01-02T01:29:31.816Z,20.82
2018-01-02T01:30:41.026Z,20.82
2018-01-02T01:31:50.745Z,20.79
2018-01-02T01:32:59.937Z,20.77
2018-01-02T01:34:09.151Z,20.69
2018-01-02T01:35:18.087Z,20.8
2018-01-02T01:36:26.760Z,20.79
2018-01-02T01:37:35.695Z,20.82
2018-01-02T01:38:44.889Z,20.69
2018-01-02T01:39:53.554Z,20.79
2018-01-02T01:41:02.765Z,20.79
2018-01-02T01:42:11.443Z,20.79
2018-01-02T01:43:20.117Z,20.82
2018-01-02T01:44:29.374Z,20.79
2018-01-02T01:45:38.275Z,20.69
2018-01-02T01:46:47.213Z,20.72
2018-01-02T01:47:56.228Z,20.79
2018-01-02T01:49:05.426Z,20.79
2018-01-02T01:50:14.621Z,20.77
2018-01-02T01:51:23.567Z,20.79
2018-01-02T01:52:33.019Z,20.74
2018-01-02T01:53:41.695Z,20.74
2018-01-02T01:54:50.376Z,20.8
2018-01-02T01:55:59.312Z,20.76
2018-01-02T01:57:08.510Z,20.77
2018-01-02T01:58:17.444Z,20.7
2018-01-02T01:59:26.386Z,20.69
2018-01-02T02:00:36.560Z,20.77
2018-01-02T02:01:45.500Z,20.7
2018-01-02T02:02:54.166Z,20.74
2018-01-02T02:04:03.103Z,20.74
2018-01-02T02:05:12.045Z,20.72
2018-01-02T02:06:20.986Z,20.67
2018-01-02T02:07:29.919Z,20.8
2018-01-02T02:08:38.854Z,20.7
2018-01-02T02:09:47.790Z,20.7
2018-01-02T02:10:57.239Z,20.67
2018-01-02T02:12:06.181Z,20.77
2018-01-02T02:13:15.648Z,20.69
2018-01-02T02:14:24.316Z,20.74
2018-01-02T02:15:33.257Z,20.7
2018-01-02T02:16:42.452Z,20.64
2018-01-02T02:17:51.656Z,20.64
2018-01-02T02:19:00.600Z,20.66
2018-01-02T02:20:09.378Z,20.69
2018-01-02T02:21:18.827Z,20.66
2018-01-02T02:22:27.760Z,20.66
2018-01-02T02:23:36.687Z,20.66
2018-01-02T02:24:45.896Z,20.82
2018-01-02T02:25:54.560Z,20.73
2018-01-02T02:27:03.762Z,20.76
2018-01-02T02:28:12.707Z,20.69
2018-01-02T02:29:21.637Z,20.66
2018-01-02T02:30:30.314Z,20.72
2018-01-02T02:31:39.248Z,20.73
2018-01-02T02:32:48.709Z,20.7
2018-01-02T02:33:57.390Z,20.67
2018-01-02T02:35:06.336Z,20.72
2018-01-02T02:36:15.282Z,20.64
2018-01-02T02:37:24.213Z,20.66
2018-01-02T02:38:32.886Z,20.74
2018-01-02T02:39:41.829Z,20.69
2018-01-02T02:40:50.776Z,20.72
2018-01-02T02:41:59.448Z,20.7
2018-01-02T02:43:08.915Z,20.67
2018-01-02T02:44:17.854Z,20.72
2018-01-02T02:45:26.530Z,20.67
2018-01-02T02:46:35.457Z,20.7
2018-01-02T02:47:44.655Z,20.7
2018-01-02T02:48:53.389Z,20.7
2018-01-02T02:50:02.323Z,20.67
2018-01-02T02:51:11.279Z,20.64
2018-01-02T02:52:20.218Z,20.7
2018-01-02T02:53:29.159Z,20.69
2018-01-02T02:54:38.098Z,20.7
2018-01-02T02:55:46.787Z,20.64
2018-01-02T02:56:55.563Z,20.64
2018-01-02T02:58:05.025Z,20.67
2018-01-02T02:59:13.953Z,20.67
2018-01-02T03:00:22.631Z,20.72
2018-01-02T03:01:32.079Z,20.67
2018-01-02T03:02:41.027Z,20.73
2018-01-02T03:03:49.966Z,20.72
2018-01-02T03:04:58.651Z,20.69
2018-01-02T03:06:07.592Z,20.76
2018-01-02T03:07:16.521Z,20.72
2018-01-02T03:08:25.463Z,20.67
2018-01-02T03:09:34.654Z,20.67
2018-01-02T03:10:50.140Z,20.67
2018-01-02T03:11:59.416Z,20.67
2018-01-02T03:13:08.356Z,20.7
2018-01-02T03:14:17.280Z,20.66
2018-01-02T03:15:25.949Z,20.69
2018-01-02T03:16:35.149Z,20.73
2018-01-02T03:17:43.831Z,20.67
2018-01-02T03:18:53.020Z,20.66
2018-01-02T03:20:01.958Z,20.67
2018-01-02T03:21:10.629Z,20.77
2018-01-02T03:22:19.302Z,20.69
2018-01-02T03:23:28.244Z,20.67
2018-01-02T03:24:37.179Z,20.69
2018-01-02T03:25:45.851Z,20.72
2018-01-02T03:26:54.778Z,20.67
2018-01-02T03:28:03.454Z,20.7
2018-01-02T03:29:12.393Z,20.67
2018-01-02T03:30:21.878Z,20.73
2018-01-02T03:31:30.573Z,20.67
2018-01-02T03:32:39.230Z,20.69
2018-01-02T03:33:48.432Z,20.66
2018-01-02T03:34:57.614Z,20.73
2018-01-02T03:36:06.539Z,20.66
2018-01-02T03:37:15.213Z,20.7
2018-01-02T03:38:24.236Z,20.67
2018-01-02T03:39:33.436Z,20.72
2018-01-02T03:40:42.379Z,20.7
2018-01-02T03:41:51.830Z,20.69
2018-01-02T03:43:00.509Z,20.73
2018-01-02T03:44:09.439Z,20.73
2018-01-02T03:45:18.637Z,20.73
2018-01-02T03:46:28.352Z,20.72
2018-01-02T03:47:37.290Z,20.73
2018-01-02T03:48:46.511Z,20.69
2018-01-02T03:49:55.446Z,20.66
2018-01-02T03:51:04.127Z,20.73
2018-01-02T03:52:13.055Z,20.69
2018-01-02T03:53:22.244Z,20.76
2018-01-02T03:54:31.188Z,20.73
2018-01-02T03:55:40.379Z,20.69
2018-01-02T03:56:49.316Z,20.72
2018-01-02T03:57:58.521Z,20.74
2018-01-02T03:59:07.455Z,20.72
2018-01-02T04:00:16.656Z,20.72
2018-01-02T04:01:25.608Z,20.69
2018-01-02T04:02:34.538Z,20.7
2018-01-02T04:03:43.734Z,20.69
2018-01-02T04:04:52.676Z,20.73
2018-01-02T04:06:02.146Z,20.72
2018-01-02T04:07:11.084Z,20.69
2018-01-02T04:08:20.358Z,20.67
2018-01-02T04:09:29.030Z,20.73
2018-01-02T04:10:37.713Z,20.69
2018-01-02T04:11:47.191Z,20.72
2018-01-02T04:12:56.384Z,20.72
2018-01-02T04:14:05.325Z,20.69
2018-01-02T04:15:14.259Z,20.7
2018-01-02T04:16:23.197Z,20.7
2018-01-02T04:17:32.145Z,20.73
2018-01-02T04:18:41.089Z,20.72
2018-01-02T04:19:50.027Z,20.69
2018-01-02T04:20:58.959Z,20.67
2018-01-02T04:22:07.645Z,20.7
2018-01-02T04:23:16.586Z,20.64
2018-01-02T04:24:25.792Z,20.7
2018-01-02T04:25:34.988Z,20.7
2018-01-02T04:26:43.924Z,20.69
2018-01-02T04:27:52.853Z,20.7
2018-01-02T04:29:02.054Z,20.7
2018-01-02T04:30:11.253Z,20.64
2018-01-02T04:31:20.447Z,20.69
2018-01-02T04:32:29.379Z,20.69
2018-01-02T04:33:38.603Z,20.7
2018-01-02T04:34:47.279Z,20.69
2018-01-02T04:35:56.214Z,20.61
2018-01-02T04:37:05.424Z,20.69
2018-01-02T04:38:14.619Z,20.73
2018-01-02T04:39:23.288Z,20.73
2018-01-02T04:40:32.226Z,20.67
2018-01-02T04:41:41.967Z,20.73
2018-01-02T04:42:51.176Z,20.7
2018-01-02T04:43:59.872Z,20.64
2018-01-02T04:45:08.826Z,20.67
2018-01-02T04:46:18.285Z,20.66
2018-01-02T04:47:26.956Z,20.66
2018-01-02T04:48:35.891Z,20.7
2018-01-02T04:49:44.558Z,20.66
2018-01-02T04:50:53.765Z,20.64
2018-01-02T04:52:02.712Z,20.69
2018-01-02T04:53:11.980Z,20.67
2018-01-02T04:54:20.654Z,20.67
2018-01-02T04:55:29.332Z,20.67
2018-01-02T04:56:38.540Z,20.69
2018-01-02T04:57:47.999Z,20.67
2018-01-02T04:58:56.957Z,20.64
2018-01-02T05:00:06.421Z,20.66
2018-01-02T05:01:15.357Z,20.66
2018-01-02T05:02:24.561Z,20.67
2018-01-02T05:03:34.057Z,20.67
2018-01-02T05:04:43.803Z,20.58
2018-01-02T05:05:52.998Z,20.7
2018-01-02T05:07:01.676Z,20.67
2018-01-02T05:08:10.889Z,20.62
2018-01-02T05:09:20.348Z,20.66
2018-01-02T05:10:29.036Z,20.66
2018-01-02T05:11:37.713Z,20.67
2018-01-02T05:12:47.175Z,20.57
2018-01-02T05:13:56.125Z,20.66
2018-01-02T05:15:05.056Z,20.66
2018-01-02T05:16:14.277Z,20.64
2018-01-02T05:17:23.222Z,20.64
2018-01-02T05:18:32.167Z,20.62
2018-01-02T05:19:41.105Z,20.66
2018-01-02T05:20:50.046Z,20.54
2018-01-02T05:21:58.729Z,20.61
2018-01-02T05:23:07.408Z,20.69
2018-01-02T05:24:16.349Z,20.64
2018-01-02T05:25:25.565Z,20.67
2018-01-02T05:26:34.232Z,20.64
2018-01-02T05:27:42.915Z,20.66
2018-01-02T05:28:52.378Z,20.57
2018-01-02T05:30:01.578Z,20.66
2018-01-02T05:31:10.258Z,20.61
2018-01-02T05:32:18.957Z,20.61
2018-01-02T05:33:27.898Z,20.62
2018-01-02T05:34:36.834Z,20.59
2018-01-02T05:35:46.050Z,20.62
2018-01-02T05:36:54.992Z,20.62
2018-01-02T05:38:04.284Z,20.62
2018-01-02T05:39:13.226Z,20.64
2018-01-02T05:40:22.436Z,20.57
2018-01-02T05:41:31.887Z,20.64
2018-01-02T05:42:41.351Z,20.61
2018-01-02T05:43:50.036Z,20.64
2018-01-02T05:44:58.717Z,20.57
2018-01-02T05:46:07.915Z,20.57
2018-01-02T05:47:17.121Z,20.57
2018-01-02T05:48:26.613Z,20.52
2018-01-02T05:49:36.077Z,20.64
2018-01-02T05:50:45.269Z,20.58
2018-01-02T05:51:54.730Z,20.57
2018-01-02T05:53:03.420Z,20.54
2018-01-02T05:54:12.871Z,20.67
2018-01-02T05:55:22.069Z,20.64
2018-01-02T05:56:30.755Z,20.52
2018-01-02T05:57:39.420Z,20.57
2018-01-02T05:58:48.101Z,20.54
2018-01-02T05:59:57.038Z,20.59
2018-01-02T06:01:06.502Z,20.58
2018-01-02T06:02:15.441Z,20.57
2018-01-02T06:03:24.115Z,20.57
2018-01-02T06:04:32.806Z,20.59
2018-01-02T06:05:41.740Z,20.55
2018-01-02T06:06:50.945Z,20.57
2018-01-02T06:08:00.667Z,20.58
2018-01-02T06:09:09.884Z,20.57
2018-01-02T06:10:18.813Z,20.57
2018-01-02T06:11:28.293Z,20.57
2018-01-02T06:12:37.244Z,20.55
2018-01-02T06:13:46.443Z,20.58
2018-01-02T06:14:55.152Z,20.57
2018-01-02T06:16:04.091Z,20.55
2018-01-02T06:17:12.760Z,20.61
2018-01-02T06:18:21.684Z,20.59
2018-01-02T06:19:30.938Z,20.5
2018-01-02T06:20:40.408Z,20.58
2018-01-02T06:21:49.344Z,20.59
2018-01-02T06:22:58.549Z,20.59
2018-01-02T06:24:07.739Z,20.54
2018-01-02T06:25:16.934Z,20.55
2018-01-02T06:26:25.870Z,20.54
2018-01-02T06:27:34.542Z,20.57
2018-01-02T06:28:43.986Z,20.5
2018-01-02T06:29:52.935Z,20.51
2018-01-02T06:31:02.389Z,20.42
2018-01-02T06:32:11.075Z,20.54
2018-01-02T06:33:20.296Z,20.42
2018-01-02T06:34:29.237Z,20.41
2018-01-02T06:35:37.917Z,20.54
2018-01-02T06:36:46.848Z,20.43
2018-01-02T06:37:55.809Z,20.41
2018-01-02T06:39:05.006Z,20.57
2018-01-02T06:40:13.945Z,20.43
2018-01-02T06:41:23.149Z,20.57
2018-01-02T06:42:32.121Z,20.48
2018-01-02T06:43:40.799Z,20.54
2018-01-02T06:44:49.736Z,20.58
2018-01-02T06:45:58.682Z,20.42
2018-01-02T06:47:07.619Z,20.43
2018-01-02T06:48:16.560Z,20.41
2018-01-02T06:49:25.245Z,20.48
2018-01-02T06:50:34.450Z,20.42
2018-01-02T06:51:43.393Z,20.42
2018-01-02T06:52:52.592Z,20.51
2018-01-02T06:54:01.278Z,20.48
2018-01-02T06:55:09.954Z,20.51
2018-01-02T06:56:18.635Z,20.41
2018-01-02T06:57:27.580Z,20.54
2018-01-02T06:58:36.524Z,20.42
2018-01-02T06:59:46.258Z,20.51
2018-01-02T07:00:55.715Z,20.54
2018-01-02T07:02:04.646Z,20.54
2018-01-02T07:03:13.601Z,20.41
2018-01-02T07:04:22.543Z,20.55
2018-01-02T07:05:31.484Z,20.48
2018-01-02T07:06:40.690Z,20.48
2018-01-02T07:07:49.367Z,20.51
2018-01-02T07:08:58.042Z,20.48
2018-01-02T07:10:06.726Z,20.5
2018-01-02T07:11:15.668Z,20.57
2018-01-02T07:12:24.598Z,20.54
2018-01-02T07:13:33.532Z,20.51
2018-01-02T07:14:42.468Z,20.55
2018-01-02T07:15:51.410Z,20.51
2018-01-02T07:17:00.079Z,20.39
2018-01-02T07:18:09.017Z,20.42
2018-01-02T07:19:17.696Z,20.54
2018-01-02T07:20:26.708Z,20.54
2018-01-02T07:21:35.653Z,20.5
2018-01-02T07:22:44.596Z,20.48
2018-01-02T07:23:53.267Z,20.51
2018-01-02T07:25:02.203Z,20.58
2018-01-02T07:26:11.136Z,20.5
2018-01-02T07:27:20.069Z,20.48
2018-01-02T07:28:29.259Z,20.48
2018-01-02T07:29:37.932Z,20.47
2018-01-02T07:30:46.862Z,20.5
2018-01-02T07:31:55.813Z,20.51
2018-01-02T07:33:05.015Z,20.54
2018-01-02T07:34:14.208Z,20.57
2018-01-02T07:35:23.145Z,20.52
2018-01-02T07:36:31.821Z,20.41
2018-01-02T07:37:40.765Z,20.43
2018-01-02T07:38:49.702Z,20.47
2018-01-02T07:39:58.913Z,20.54
2018-01-02T07:41:07.854Z,20.5
2018-01-02T07:42:16.797Z,20.39
2018-01-02T07:43:25.731Z,20.39
2018-01-02T07:44:34.663Z,20.5
2018-01-02T07:45:43.624Z,20.43
2018-01-02T07:46:52.558Z,20.54
2018-01-02T07:48:01.494Z,20.51
2018-01-02T07:49:10.170Z,20.48
2018-01-02T07:50:19.364Z,20.57
2018-01-02T07:51:28.574Z,20.55
2018-01-02T07:52:37.259Z,20.58
2018-01-02T07:53:46.183Z,20.64
2018-01-02T07:54:55.122Z,20.7
2018-01-02T07:56:04.048Z,20.69
2018-01-02T07:57:12.717Z,20.74
2018-01-02T07:58:22.183Z,20.76
2018-01-02T07:59:30.868Z,20.82
2018-01-02T08:00:39.544Z,20.84
2018-01-02T08:01:48.814Z,20.98
2018-01-02T08:02:57.749Z,20.99
2018-01-02T08:04:06.427Z,21.09
2018-01-02T08:05:15.654Z,21.14
2018-01-02T08:06:24.916Z,21.16
2018-01-02T08:07:34.123Z,21.27
2018-01-02T08:08:42.792Z,21.19
2018-01-02T08:09:52.000Z,21.28
2018-01-02T08:11:00.678Z,21.24
2018-01-02T08:12:09.621Z,21.37
2018-01-02T08:13:18.565Z,21.44
2018-01-02T08:14:27.565Z,21.52
2018-01-02T08:15:36.769Z,21.4
2018-01-02T08:16:45.446Z,21.58
2018-01-02T08:17:54.119Z,21.67
2018-01-02T08:19:03.320Z,21.61
2018-01-02T08:20:12.266Z,21.64
2018-01-02T08:21:20.948Z,21.77
2018-01-02T08:22:29.623Z,21.74
2018-01-02T08:23:39.088Z,21.8
2018-01-02T08:24:48.035Z,21.77
2018-01-02T08:25:57.223Z,21.72
2018-01-02T08:27:05.919Z,21.82
2018-01-02T08:28:14.598Z,21.92
2018-01-02T08:29:23.276Z,21.98
2018-01-02T08:30:32.217Z,21.86
2018-01-02T08:31:40.899Z,21.88
2018-01-02T08:32:49.576Z,21.9
2018-01-02T08:33:58.815Z,21.96
2018-01-02T08:35:08.403Z,21.98
2018-01-02T08:36:17.082Z,21.94
2018-01-02T08:37:26.051Z,21.96
2018-01-02T08:38:34.723Z,22.02
2018-01-02T08:39:43.963Z,21.9
2018-01-02T08:40:53.837Z,21.88
2018-01-02T08:42:03.320Z,21.96
2018-01-02T08:43:12.300Z,21.9
2018-01-02T08:44:21.430Z,21.91
2018-01-02T08:45:30.632Z,21.82
2018-01-02T08:46:39.668Z,21.94
2018-01-02T08:47:49.157Z,21.9
2018-01-02T08:48:58.109Z,21.94
2018-01-02T08:50:06.791Z,21.91
2018-01-02T08:51:15.746Z,21.74
2018-01-02T08:52:24.688Z,21.8
2018-01-02T08:53:33.381Z,21.9
2018-01-02T08:54:42.586Z,21.84
2018-01-02T08:55:51.796Z,21.8
2018-01-02T08:57:00.742Z,21.8
2018-01-02T08:58:09.936Z,21.77
2018-01-02T08:59:18.632Z,21.75
2018-01-02T09:00:27.572Z,21.75
2018-01-02T09:01:36.249Z,21.77
2018-01-02T09:02:44.925Z,21.68
2018-01-02T09:03:54.384Z,21.82
2018-01-02T09:05:03.320Z,21.71
2018-01-02T09:06:12.250Z,21.77
2018-01-02T09:07:20.941Z,21.72
2018-01-02T09:08:29.917Z,21.72
2018-01-02T09:09:38.606Z,21.71
2018-01-02T09:10:47.538Z,21.75
2018-01-02T09:11:56.731Z,21.68
2018-01-02T09:13:05.410Z,21.77
2018-01-02T09:14:14.088Z,21.72
2018-01-02T09:15:23.297Z,21.71
2018-01-02T09:16:32.737Z,21.75
2018-01-02T09:17:41.797Z,21.77
2018-01-02T09:18:50.483Z,21.79
2018-01-02T09:19:59.414Z,21.79
2018-01-02T09:21:08.351Z,21.84
2018-01-02T09:22:17.283Z,21.9
2018-01-02T09:23:26.490Z,21.88
2018-01-02T09:24:35.688Z,21.69
2018-01-02T09:25:44.884Z,21.79
2018-01-02T09:26:54.349Z,21.75
2018-01-02T09:28:03.543Z,21.74
2018-01-02T09:29:13.016Z,21.8
2018-01-02T09:30:22.251Z,21.71
2018-01-02T09:31:31.625Z,21.75
2018-01-02T09:32:41.196Z,21.9
2018-01-02T09:33:50.677Z,21.82
2018-01-02T09:34:59.967Z,21.86
2018-01-02T09:36:09.604Z,21.8
2018-01-02T09:37:18.886Z,21.86
2018-01-02T09:38:28.357Z,21.83
2018-01-02T09:39:37.561Z,21.86
2018-01-02T09:40:46.503Z,21.83
2018-01-02T09:41:55.699Z,21.9
2018-01-02T09:43:04.888Z,21.91
2018-01-02T09:44:13.822Z,21.91
2018-01-02T09:45:22.554Z,21.92
2018-01-02T09:46:32.444Z,21.88
2018-01-02T09:47:42.162Z,21.91
2018-01-02T09:48:51.377Z,21.8
2018-01-02T09:50:00.922Z,21.82
2018-01-02T09:51:09.859Z,21.9
2018-01-02T09:52:18.616Z,21.82
2018-01-02T09:53:27.546Z,21.84
2018-01-02T09:54:36.504Z,21.8
2018-01-02T09:55:45.435Z,21.83
2018-01-02T09:56:54.462Z,21.79
2018-01-02T09:58:03.419Z,21.79
2018-01-02T09:59:12.349Z,21.77
2018-01-02T10:00:21.294Z,21.74
2018-01-02T10:01:30.489Z,21.74
2018-01-02T10:02:39.690Z,21.74
2018-01-02T10:03:48.901Z,21.75
2018-01-02T10:04:58.362Z,21.69
2018-01-02T10:06:07.296Z,21.74
2018-01-02T10:07:16.243Z,21.71
2018-01-02T10:08:24.916Z,21.77
2018-01-02T10:09:34.171Z,21.67
2018-01-02T10:10:42.845Z,21.77
2018-01-02T10:11:52.552Z,21.74
2018-01-02T10:13:01.482Z,21.72
2018-01-02T10:14:10.156Z,21.67
2018-01-02T10:15:19.344Z,21.71
2018-01-02T10:16:28.049Z,21.74
2018-01-02T10:17:36.972Z,21.68
2018-01-02T10:18:45.897Z,21.72
2018-01-02T10:19:54.573Z,21.74
2018-01-02T10:21:03.255Z,21.69
2018-01-02T10:22:11.937Z,21.72
2018-01-02T10:23:21.135Z,21.82
2018-01-02T10:24:30.339Z,21.77
2018-01-02T10:25:39.545Z,21.74
2018-01-02T10:26:48.770Z,21.72
2018-01-02T10:27:57.447Z,21.71
2018-01-02T10:29:06.905Z,21.72
2018-01-02T10:30:16.613Z,21.72
2018-01-02T10:31:25.803Z,21.69
2018-01-02T10:32:34.996Z,21.75
2018-01-02T10:33:44.196Z,21.83
2018-01-02T10:34:52.874Z,21.8
2018-01-02T10:36:01.810Z,21.8
2018-01-02T10:37:10.489Z,21.77
2018-01-02T10:38:19.518Z,21.77
2018-01-02T10:39:29.642Z,21.71
2018-01-02T10:40:38.880Z,21.75
2018-01-02T10:41:48.068Z,21.72
2018-01-02T10:42:57.006Z,21.74
2018-01-02T10:44:05.948Z,21.77
2018-01-02T10:45:14.873Z,21.77
2018-01-02T10:46:23.807Z,21.74
2018-01-02T10:47:32.553Z,21.75
2018-01-02T10:48:41.481Z,21.69
2018-01-02T10:49:50.149Z,21.71
2018-01-02T10:50:59.086Z,21.69
2018-01-02T10:52:08.021Z,21.68
2018-01-02T10:53:16.693Z,21.61
2018-01-02T10:54:25.879Z,21.72
2018-01-02T10:55:34.808Z,21.71
2018-01-02T10:56:44.091Z,21.64
2018-01-02T10:57:53.029Z,21.65
2018-01-02T10:59:02.227Z,21.65
2018-01-02T11:00:10.900Z,21.67
2018-01-02T11:01:19.571Z,21.62
2018-01-02T11:02:28.506Z,21.69
2018-01-02T11:03:37.188Z,21.64
2018-01-02T11:04:45.857Z,21.67
2018-01-02T11:05:54.825Z,21.62
2018-01-02T11:07:03.512Z,21.69
2018-01-02T11:08:12.463Z,21.64
2018-01-02T11:09:21.475Z,21.62
2018-01-02T11:10:30.671Z,21.67
2018-01-02T11:11:39.342Z,21.65
2018-01-02T11:12:48.816Z,21.71
2018-01-02T11:13:58.015Z,21.65
2018-01-02T11:15:07.921Z,21.69
2018-01-02T11:16:17.159Z,21.64
2018-01-02T11:17:26.165Z,21.74
2018-01-02T11:18:34.843Z,21.61
2018-01-02T11:19:43.522Z,21.68
2018-01-02T11:20:52.985Z,21.65
2018-01-02T11:22:01.915Z,21.67
2018-01-02T11:23:10.665Z,21.75
2018-01-02T11:24:19.601Z,21.65
2018-01-02T11:25:28.541Z,21.71
2018-01-02T11:26:37.212Z,21.65
2018-01-02T11:27:46.401Z,21.68
2018-01-02T11:28:55.423Z,21.67
2018-01-02T11:30:04.632Z,21.64
2018-01-02T11:31:13.834Z,21.65
2018-01-02T11:32:22.513Z,21.68
2018-01-02T11:33:31.451Z,21.65
2018-01-02T11:34:40.136Z,21.62
2018-01-02T11:35:49.103Z,21.52
2018-01-02T11:36:58.039Z,21.54
2018-01-02T11:38:06.717Z,21.58
2018-01-02T11:39:15.659Z,21.58
2018-01-02T11:40:24.599Z,21.56
2018-01-02T11:41:33.539Z,21.59
2018-01-02T11:42:42.207Z,21.53
2018-01-02T11:43:50.882Z,21.43
2018-01-02T11:44:59.549Z,21.49
2018-01-02T11:46:08.491Z,21.49
2018-01-02T11:47:17.429Z,21.46
2018-01-02T11:48:26.377Z,21.42
2018-01-02T11:49:35.841Z,21.37
2018-01-02T11:50:44.786Z,21.44
2018-01-02T11:51:53.475Z,21.46
2018-01-02T11:53:02.146Z,21.44
2018-01-02T11:54:11.647Z,21.43
2018-01-02T11:55:20.547Z,21.4
2018-01-02T11:56:30.275Z,21.37
2018-01-02T11:57:38.943Z,21.34
2018-01-02T11:58:48.183Z,21.34
2018-01-02T11:59:57.123Z,21.37
2018-01-02T12:01:06.575Z,21.37
2018-01-02T12:02:15.504Z,21.44
2018-01-02T12:03:24.450Z,21.44
2018-01-02T12:04:33.643Z,21.44
2018-01-02T12:05:42.324Z,21.35
2018-01-02T12:06:51.253Z,21.4
2018-01-02T12:07:59.929Z,21.35
2018-01-02T12:09:08.595Z,21.43
2018-01-02T12:10:17.353Z,21.32
2018-01-02T12:11:26.287Z,21.38
2018-01-02T12:12:34.963Z,21.37
2018-01-02T12:13:44.169Z,21.44
2018-01-02T12:14:53.118Z,21.37
2018-01-02T12:16:02.304Z,21.34
2018-01-02T12:17:10.998Z,21.42
2018-01-02T12:18:19.647Z,21.43
2018-01-02T12:19:28.574Z,21.37
2018-01-02T12:20:38.030Z,21.37
2018-01-02T12:21:47.225Z,21.32
2018-01-02T12:22:56.161Z,21.4
2018-01-02T12:24:05.362Z,21.43
2018-01-02T12:25:14.557Z,21.34
2018-01-02T12:26:23.229Z,21.38
2018-01-02T12:27:32.172Z,21.37
2018-01-02T12:28:41.366Z,21.32
2018-01-02T12:29:50.311Z,21.37
2018-01-02T12:30:59.783Z,21.35
2018-01-02T12:32:08.760Z,21.38
2018-01-02T12:33:17.942Z,21.4
2018-01-02T12:34:26.669Z,21.31
2018-01-02T12:35:35.629Z,21.34
2018-01-02T12:36:44.562Z,21.42
2018-01-02T12:37:53.499Z,21.44
2018-01-02T12:39:02.700Z,21.43
2018-01-02T12:40:11.902Z,21.46
2018-01-02T12:41:20.838Z,21.43
2018-01-02T12:42:29.795Z,21.47
2018-01-02T12:43:38.798Z,21.43
2018-01-02T12:44:47.749Z,21.4
2018-01-02T12:45:56.425Z,21.38
2018-01-02T12:47:05.355Z,21.43
2018-01-02T12:48:14.557Z,21.4
2018-01-02T12:49:23.500Z,21.4
2018-01-02T12:50:33.316Z,21.38
2018-01-02T12:51:42.253Z,21.43
2018-01-02T12:52:51.183Z,21.38
2018-01-02T12:54:00.396Z,21.42
2018-01-02T12:55:09.340Z,21.42
2018-01-02T12:56:18.559Z,21.42
2018-01-02T12:57:27.760Z,21.38
2018-01-02T12:58:36.707Z,21.42
2018-01-02T12:59:45.380Z,21.43
2018-01-02T13:00:54.886Z,21.43
2018-01-02T13:02:04.834Z,21.44
2018-01-02T13:03:13.798Z,21.43
2018-01-02T13:04:22.478Z,21.38
2018-01-02T13:05:31.936Z,21.4
2018-01-02T13:06:40.873Z,21.35
2018-01-02T13:07:49.545Z,21.42
2018-01-02T13:08:58.747Z,21.35
2018-01-02T13:10:07.701Z,21.37
2018-01-02T13:11:16.995Z,21.38
2018-01-02T13:12:25.671Z,21.35
2018-01-02T13:13:35.171Z,21.35
2018-01-02T13:14:44.506Z,21.32
2018-01-02T13:15:53.778Z,21.34
2018-01-02T13:17:02.983Z,21.37
2018-01-02T13:18:11.915Z,21.35
2018-01-02T13:19:20.853Z,21.35
2018-01-02T13:20:30.050Z,21.29
2018-01-02T13:21:39.245Z,21.31
2018-01-02T13:22:48.698Z,21.25
2018-01-02T13:23:57.422Z,21.28
2018-01-02T13:25:06.301Z,21.28
2018-01-02T13:26:15.233Z,21.27
2018-01-02T13:27:23.910Z,21.32
2018-01-02T13:28:32.633Z,21.27
2018-01-02T13:29:41.827Z,21.27
2018-01-02T13:30:51.019Z,21.28
2018-01-02T13:31:59.962Z,21.34
2018-01-02T13:33:09.155Z,21.32
2018-01-02T13:34:18.096Z,21.28
2018-01-02T13:35:26.773Z,21.32
2018-01-02T13:36:35.968Z,21.25
2018-01-02T13:37:44.646Z,21.31
2018-01-02T13:38:53.586Z,21.27
2018-01-02T13:40:02.773Z,21.32
2018-01-02T13:41:11.703Z,21.28
2018-01-02T13:42:20.908Z,21.22
2018-01-02T13:43:29.860Z,21.28
2018-01-02T13:44:38.593Z,21.27
2018-01-02T13:45:48.354Z,21.28
2018-01-02T13:46:57.675Z,21.29
2018-01-02T13:48:06.996Z,21.28
2018-01-02T13:49:15.932Z,21.21
2018-01-02T13:50:24.867Z,21.34
2018-01-02T13:51:34.199Z,21.25
2018-01-02T13:52:42.881Z,21.35
2018-01-02T13:53:51.578Z,21.34
2018-01-02T13:55:00.662Z,21.32
2018-01-02T13:56:09.679Z,21.29
2018-01-02T13:57:19.432Z,21.25
2018-01-02T13:58:28.969Z,21.28
2018-01-02T13:59:38.494Z,21.34
2018-01-02T14:00:47.690Z,21.31
2018-01-02T14:01:56.895Z,21.34
2018-01-02T14:03:05.697Z,21.28
2018-01-02T14:04:14.909Z,21.32
2018-01-02T14:05:24.180Z,21.22
2018-01-02T14:06:33.136Z,21.27
2018-01-02T14:07:42.718Z,21.22
2018-01-02T14:08:51.551Z,21.31
2018-01-02T14:10:01.519Z,21.24
2018-01-02T14:11:10.552Z,21.29
2018-01-02T14:12:19.234Z,21.22
2018-01-02T14:13:28.036Z,21.28
2018-01-02T14:14:37.063Z,21.27
2018-01-02T14:15:45.996Z,21.21
2018-01-02T14:16:56.509Z,21.25
2018-01-02T14:18:06.551Z,21.25
2018-01-02T14:19:15.298Z,21.28
2018-01-02T14:20:24.856Z,21.27
2018-01-02T14:21:33.575Z,21.22
2018-01-02T14:22:42.784Z,21.24
2018-01-02T14:23:51.640Z,21.27
2018-01-02T14:25:01.442Z,21.19
2018-01-02T14:26:10.391Z,21.25
2018-01-02T14:27:19.588Z,21.24
2018-01-02T14:28:29.064Z,21.24
2018-01-02T14:29:39.245Z,21.17
2018-01-02T14:30:50.102Z,21.22
2018-01-02T14:31:59.341Z,21.16
2018-01-02T14:33:08.164Z,21.19
2018-01-02T14:34:17.097Z,21.22
2018-01-02T14:35:26.764Z,21.1
2018-01-02T14:36:36.012Z,21.14
2018-01-02T14:37:46.017Z,21.22
2018-01-02T14:38:55.231Z,21.14
2018-01-02T14:40:04.093Z,21.12
2018-01-02T14:41:13.179Z,21.12
2018-01-02T14:42:23.194Z,21.13
2018-01-02T14:43:32.736Z,21.13
2018-01-02T14:44:43.214Z,21.1
2018-01-02T14:45:51.888Z,21.13
2018-01-02T14:47:01.148Z,21.14
2018-01-02T14:48:10.610Z,21.1
2018-01-02T14:49:19.299Z,21.1
2018-01-02T14:50:28.847Z,21.13
2018-01-02T14:51:37.546Z,21.09
2018-01-02T14:52:46.480Z,21.14
2018-01-02T14:53:55.436Z,21.09
2018-01-02T14:55:04.903Z,21.06
2018-01-02T14:56:14.358Z,21.16
2018-01-02T14:57:23.309Z,21.13